Messwerte Windhoek

Temperatur

Temperatur
°C
1573473600 14.00 14.00 29
1573477200 15.00 15.00 29
1573480800 16.00 16.00
1573484400 17.00 17.00 29
1573488000 18.00 18.00 29
1573491600 19.00 19.00
1573495200 20.00 20.00
1573498800 21.00 21.00 24
1573502400 22.00 22.00 23
1573506000 23.00 23.00 21
1573509600 0.00 0.00 22
1573513200 1.00 1.00
1573516800 2.00 2.00 17
1573520400 3.00 3.00 15
1573524000 4.00 4.00 15
1573527600 5.00 5.00 14
1573531200 6.00 6.00 14
1573534800 7.00 7.00
1573538400 8.00 8.00 22
1573542000 9.00 9.00 23
1573545600 10.00 10.00 25
1573549200 11.00 11.00 27
1573552800 12.00 12.00 29
1573556400 13.00 13.00 30

Aktuellste Messwerte

Wettercharakter
Wetter: freundlich
Temperatur
30 °C
Feuchtigkeit
10 %
Wind
20 km/hWindrichtung: West
Luftdruck
1018 hPa
Messzeit: 12. November 2019, 13.00Datenquelle: METAR

Weitere Messstationen in der Nähe

Messstation Temperatur Entfernung
Windhuk 30 °C 38 km
Windhuk 28 °C 43 km
Mariental 29 °C 241 km
Otjiwarongo 32 °C 242 km
Walfischbucht 22 °C 294 km
Grootfontein 31 °C 327 km
Okaukuejo 33 °C 400 km

Wind

Windrichtung Böen Mittelwind
° km/h km/h
1573473600 14.00 13.00 - 14.00 320° 20
1573477200 15.00 14.00 - 15.00 290° 45 25
1573480800 16.00 15.00 - 16.00
1573484400 17.00 16.00 - 17.00 310° 25
1573488000 18.00 17.00 - 18.00 260° 20
1573491600 19.00 18.00 - 19.00
1573495200 20.00 19.00 - 20.00
1573498800 21.00 20.00 - 21.00 250° 20
1573502400 22.00 21.00 - 22.00 260° 20
1573506000 23.00 22.00 - 23.00 270° 20
1573509600 0.00 23.00 - 0.00 260° 10
1573513200 1.00 0.00 - 1.00
1573516800 2.00 1.00 - 2.00 0
1573520400 3.00 2.00 - 3.00 250° 5
1573524000 4.00 3.00 - 4.00 260° 10
1573527600 5.00 4.00 - 5.00 260° 5
1573531200 6.00 5.00 - 6.00 0
1573534800 7.00 6.00 - 7.00
1573538400 8.00 7.00 - 8.00 110° 5
1573542000 9.00 8.00 - 9.00 90° 15
1573545600 10.00 9.00 - 10.00 20° 5
1573549200 11.00 10.00 - 11.00 30° 10
1573552800 12.00 11.00 - 12.00 300° 20
1573556400 13.00 12.00 - 13.00 290° 20

Ihre Wetterstation

Fehlt Ihre Wetterstation auf unserem Portal?

Schreiben Sie an network@meteonews.ch

Klima

Wann ist es am wärmsten? Wann regnet es am wenigsten? Unsere Klimadaten geben Auskunft.